sensor_id;sensor_type;location;lat;lon;timestamp;temperature;humidity
41080;DHT22;26826;50.718;7.114;2023-05-07T00:08:29;14.10;99.90
41080;DHT22;26826;50.718;7.114;2023-05-07T00:18:30;14.10;99.90
41080;DHT22;26826;50.718;7.114;2023-05-07T00:28:31;14.20;99.90
41080;DHT22;26826;50.718;7.114;2023-05-07T00:38:31;14.20;99.90
41080;DHT22;26826;50.718;7.114;2023-05-07T00:48:32;14.20;99.90
41080;DHT22;26826;50.718;7.114;2023-05-07T00:58:33;14.20;99.90
41080;DHT22;26826;50.718;7.114;2023-05-07T01:08:34;14.10;99.90
41080;DHT22;26826;50.718;7.114;2023-05-07T01:18:35;14.10;99.90
41080;DHT22;26826;50.718;7.114;2023-05-07T01:28:36;14.10;99.90
41080;DHT22;26826;50.718;7.114;2023-05-07T01:38:36;14.10;99.90
41080;DHT22;26826;50.718;7.114;2023-05-07T01:48:37;14.10;99.90
41080;DHT22;26826;50.718;7.114;2023-05-07T01:58:38;14.00;99.90
41080;DHT22;26826;50.718;7.114;2023-05-07T02:08:39;14.10;99.90
41080;DHT22;26826;50.718;7.114;2023-05-07T02:18:40;14.10;99.90
41080;DHT22;26826;50.718;7.114;2023-05-07T02:28:40;13.90;99.90
41080;DHT22;26826;50.718;7.114;2023-05-07T02:38:41;13.80;99.90
41080;DHT22;26826;50.718;7.114;2023-05-07T02:48:41;13.70;99.90
41080;DHT22;26826;50.718;7.114;2023-05-07T02:58:42;13.60;99.90
41080;DHT22;26826;50.718;7.114;2023-05-07T03:08:43;13.50;99.90
41080;DHT22;26826;50.718;7.114;2023-05-07T03:18:44;13.60;99.90
41080;DHT22;26826;50.718;7.114;2023-05-07T03:28:44;13.60;99.90
41080;DHT22;26826;50.718;7.114;2023-05-07T03:38:45;13.70;99.90
41080;DHT22;26826;50.718;7.114;2023-05-07T03:48:45;13.70;99.90
41080;DHT22;26826;50.718;7.114;2023-05-07T03:58:47;13.70;99.90
41080;DHT22;26826;50.718;7.114;2023-05-07T04:08:47;13.70;99.90
41080;DHT22;26826;50.718;7.114;2023-05-07T04:18:48;13.70;99.90
41080;DHT22;26826;50.718;7.114;2023-05-07T04:28:48;13.60;99.90
41080;DHT22;26826;50.718;7.114;2023-05-07T04:38:49;13.60;99.90
41080;DHT22;26826;50.718;7.114;2023-05-07T04:48:49;13.70;99.90
41080;DHT22;26826;50.718;7.114;2023-05-07T04:58:50;13.80;99.90
41080;DHT22;26826;50.718;7.114;2023-05-07T05:08:51;13.80;99.90
41080;DHT22;26826;50.718;7.114;2023-05-07T05:18:52;13.80;99.90
41080;DHT22;26826;50.718;7.114;2023-05-07T05:28:54;13.90;99.90
41080;DHT22;26826;50.718;7.114;2023-05-07T05:38:55;14.20;99.90
41080;DHT22;26826;50.718;7.114;2023-05-07T05:48:56;14.30;99.90
41080;DHT22;26826;50.718;7.114;2023-05-07T05:58:57;14.50;99.90
41080;DHT22;26826;50.718;7.114;2023-05-07T06:08:58;14.60;99.90
41080;DHT22;26826;50.718;7.114;2023-05-07T06:18:58;15.00;99.90
41080;DHT22;26826;50.718;7.114;2023-05-07T06:28:59;15.30;99.90
41080;DHT22;26826;50.718;7.114;2023-05-07T06:38:59;15.60;99.90
41080;DHT22;26826;50.718;7.114;2023-05-07T06:49:00;15.90;99.90
41080;DHT22;26826;50.718;7.114;2023-05-07T06:59:02;16.10;99.90
41080;DHT22;26826;50.718;7.114;2023-05-07T07:09:02;16.30;99.90
41080;DHT22;26826;50.718;7.114;2023-05-07T07:19:03;16.70;99.90
41080;DHT22;26826;50.718;7.114;2023-05-07T07:29:03;16.90;99.90
41080;DHT22;26826;50.718;7.114;2023-05-07T07:39:04;17.10;99.90
41080;DHT22;26826;50.718;7.114;2023-05-07T07:49:04;17.20;99.90
41080;DHT22;26826;50.718;7.114;2023-05-07T07:59:05;17.40;99.90
41080;DHT22;26826;50.718;7.114;2023-05-07T08:09:06;17.90;99.90
41080;DHT22;26826;50.718;7.114;2023-05-07T08:19:06;18.20;99.90
41080;DHT22;26826;50.718;7.114;2023-05-07T08:29:07;18.70;99.90
41080;DHT22;26826;50.718;7.114;2023-05-07T08:39:07;18.90;99.90
41080;DHT22;26826;50.718;7.114;2023-05-07T08:49:08;19.60;99.90
41080;DHT22;26826;50.718;7.114;2023-05-07T08:59:09;19.80;99.90
41080;DHT22;26826;50.718;7.114;2023-05-07T09:09:09;20.10;99.90
41080;DHT22;26826;50.718;7.114;2023-05-07T09:19:14;21.00;99.90
41080;DHT22;26826;50.718;7.114;2023-05-07T09:29:15;21.80;99.90
41080;DHT22;26826;50.718;7.114;2023-05-07T09:39:17;22.30;99.90
41080;DHT22;26826;50.718;7.114;2023-05-07T09:49:23;22.40;99.90
41080;DHT22;26826;50.718;7.114;2023-05-07T09:59:24;23.00;99.90
41080;DHT22;26826;50.718;7.114;2023-05-07T10:09:26;23.60;99.90
41080;DHT22;26826;50.718;7.114;2023-05-07T10:19:27;24.30;99.90
41080;DHT22;26826;50.718;7.114;2023-05-07T10:39:53;25.70;99.90
41080;DHT22;26826;50.718;7.114;2023-05-07T11:10:49;27.10;99.00
41080;DHT22;26826;50.718;7.114;2023-05-07T11:20:58;27.60;98.70
41080;DHT22;26826;50.718;7.114;2023-05-07T11:30:59;27.10;98.90
41080;DHT22;26826;50.718;7.114;2023-05-07T11:41:00;27.80;97.90
41080;DHT22;26826;50.718;7.114;2023-05-07T11:51:06;27.90;97.00
41080;DHT22;26826;50.718;7.114;2023-05-07T12:01:10;27.50;96.80
41080;DHT22;26826;50.718;7.114;2023-05-07T12:11:16;26.90;96.60
41080;DHT22;26826;50.718;7.114;2023-05-07T12:21:18;26.00;96.70
41080;DHT22;26826;50.718;7.114;2023-05-07T12:31:18;25.30;97.40
41080;DHT22;26826;50.718;7.114;2023-05-07T12:41:19;24.70;98.00
41080;DHT22;26826;50.718;7.114;2023-05-07T12:51:27;24.30;97.90
41080;DHT22;26826;50.718;7.114;2023-05-07T13:01:34;24.10;98.00
41080;DHT22;26826;50.718;7.114;2023-05-07T13:11:35;24.00;99.40
41080;DHT22;26826;50.718;7.114;2023-05-07T13:21:35;23.60;99.90
41080;DHT22;26826;50.718;7.114;2023-05-07T13:31:36;23.30;99.90
41080;DHT22;26826;50.718;7.114;2023-05-07T13:41:36;23.40;99.90
41080;DHT22;26826;50.718;7.114;2023-05-07T13:51:37;23.40;99.90
41080;DHT22;26826;50.718;7.114;2023-05-07T14:01:37;23.10;99.90
41080;DHT22;26826;50.718;7.114;2023-05-07T14:11:38;22.90;99.90
41080;DHT22;26826;50.718;7.114;2023-05-07T14:21:40;23.00;99.90
41080;DHT22;26826;50.718;7.114;2023-05-07T14:31:40;23.00;99.90
41080;DHT22;26826;50.718;7.114;2023-05-07T14:41:41;22.60;99.90
41080;DHT22;26826;50.718;7.114;2023-05-07T14:51:41;22.20;99.90
41080;DHT22;26826;50.718;7.114;2023-05-07T15:01:42;21.60;99.90
41080;DHT22;26826;50.718;7.114;2023-05-07T15:11:45;20.80;99.90
41080;DHT22;26826;50.718;7.114;2023-05-07T15:21:46;19.30;99.90
41080;DHT22;26826;50.718;7.114;2023-05-07T15:31:46;18.40;99.90
41080;DHT22;26826;50.718;7.114;2023-05-07T15:41:47;18.00;99.90
41080;DHT22;26826;50.718;7.114;2023-05-07T15:51:48;17.70;99.90
41080;DHT22;26826;50.718;7.114;2023-05-07T16:01:48;17.60;99.90
41080;DHT22;26826;50.718;7.114;2023-05-07T16:11:49;17.80;99.90
41080;DHT22;26826;50.718;7.114;2023-05-07T16:21:49;17.40;99.90
41080;DHT22;26826;50.718;7.114;2023-05-07T16:31:51;17.20;99.90
41080;DHT22;26826;50.718;7.114;2023-05-07T16:41:52;17.00;99.90
41080;DHT22;26826;50.718;7.114;2023-05-07T16:51:53;17.00;99.90
41080;DHT22;26826;50.718;7.114;2023-05-07T17:01:53;17.00;99.90
41080;DHT22;26826;50.718;7.114;2023-05-07T17:11:54;16.90;99.90
41080;DHT22;26826;50.718;7.114;2023-05-07T17:21:54;16.90;99.90
41080;DHT22;26826;50.718;7.114;2023-05-07T17:31:55;16.90;99.90
41080;DHT22;26826;50.718;7.114;2023-05-07T17:41:55;16.80;99.90
41080;DHT22;26826;50.718;7.114;2023-05-07T17:51:56;16.70;99.90
41080;DHT22;26826;50.718;7.114;2023-05-07T18:01:57;16.70;99.90
41080;DHT22;26826;50.718;7.114;2023-05-07T18:11:57;16.50;99.90
41080;DHT22;26826;50.718;7.114;2023-05-07T18:21:58;16.40;99.90
41080;DHT22;26826;50.718;7.114;2023-05-07T18:31:58;16.30;99.90
41080;DHT22;26826;50.718;7.114;2023-05-07T18:41:59;16.40;99.90
41080;DHT22;26826;50.718;7.114;2023-05-07T18:52:00;16.20;99.90
41080;DHT22;26826;50.718;7.114;2023-05-07T19:02:00;16.10;99.90
41080;DHT22;26826;50.718;7.114;2023-05-07T19:12:01;15.90;99.90
41080;DHT22;26826;50.718;7.114;2023-05-07T19:22:02;15.80;99.90
41080;DHT22;26826;50.718;7.114;2023-05-07T19:32:02;15.90;99.90
41080;DHT22;26826;50.718;7.114;2023-05-07T19:42:03;15.80;99.90
41080;DHT22;26826;50.718;7.114;2023-05-07T19:52:04;15.80;99.90
41080;DHT22;26826;50.718;7.114;2023-05-07T20:02:05;15.70;99.90
41080;DHT22;26826;50.718;7.114;2023-05-07T20:12:06;15.60;99.90
41080;DHT22;26826;50.718;7.114;2023-05-07T20:22:06;15.50;99.90
41080;DHT22;26826;50.718;7.114;2023-05-07T20:32:07;15.60;99.90
41080;DHT22;26826;50.718;7.114;2023-05-07T20:42:07;15.40;99.90
41080;DHT22;26826;50.718;7.114;2023-05-07T20:52:09;15.30;99.90
41080;DHT22;26826;50.718;7.114;2023-05-07T21:02:10;15.20;99.90
41080;DHT22;26826;50.718;7.114;2023-05-07T21:12:10;15.30;99.90
41080;DHT22;26826;50.718;7.114;2023-05-07T21:22:11;15.30;99.90
41080;DHT22;26826;50.718;7.114;2023-05-07T21:32:11;15.20;99.90
41080;DHT22;26826;50.718;7.114;2023-05-07T21:42:12;15.10;99.90
41080;DHT22;26826;50.718;7.114;2023-05-07T21:52:13;15.10;99.90
41080;DHT22;26826;50.718;7.114;2023-05-07T22:02:14;15.00;99.90
41080;DHT22;26826;50.718;7.114;2023-05-07T22:12:15;15.00;99.90
41080;DHT22;26826;50.718;7.114;2023-05-07T22:22:15;15.00;99.90
41080;DHT22;26826;50.718;7.114;2023-05-07T22:32:18;15.00;99.90
41080;DHT22;26826;50.718;7.114;2023-05-07T22:42:18;15.00;99.90
41080;DHT22;26826;50.718;7.114;2023-05-07T22:52:19;14.90;99.90
41080;DHT22;26826;50.718;7.114;2023-05-07T23:02:19;14.90;99.90
41080;DHT22;26826;50.718;7.114;2023-05-07T23:12:20;14.90;99.90
41080;DHT22;26826;50.718;7.114;2023-05-07T23:22:21;14.90;99.90
41080;DHT22;26826;50.718;7.114;2023-05-07T23:32:21;15.00;99.90
41080;DHT22;26826;50.718;7.114;2023-05-07T23:42:22;14.90;99.90
41080;DHT22;26826;50.718;7.114;2023-05-07T23:52:22;14.90;99.90
